Time;durP1;ratioP1;P1;durP2;ratioP2;P2;SDS_P1;SDS_P2;PMS_P1;PMS_P2;Temp;Humidity;BMP_temperature;BMP_pressure;BME280_temperature;BME280_humidity;BME280_pressure;Samples;Min_cycle;Max_cycle;Signal;HPM_P1;HPM_P2
2023/12/24 00:00:00;;;;;;;6.82;5.68;;;9.10;99.90;;;;;;5071678;28;20775;-65
2023/12/24 00:02:25;;;;;;;13.25;6.00;;;9.10;99.90;;;;;;5068209;28;20178;-64
2023/12/24 00:04:51;;;;;;;8.50;5.63;;;9.10;99.90;;;;;;5070105;28;20560;-66
2023/12/24 00:07:17;;;;;;;9.15;6.03;;;9.10;99.90;;;;;;5072943;28;20207;-65
2023/12/24 00:09:43;;;;;;;8.65;5.97;;;9.10;99.90;;;;;;5072902;28;20705;-66
2023/12/24 00:12:09;;;;;;;7.23;5.80;;;9.10;99.90;;;;;;5071699;28;20177;-66
2023/12/24 00:14:37;;;;;;;6.93;5.75;;;9.10;99.90;;;;;;5071908;28;20193;-66
2023/12/24 00:17:03;;;;;;;9.30;5.97;;;9.10;99.90;;;;;;5072285;28;20736;-65
2023/12/24 00:19:29;;;;;;;11.57;5.70;;;9.00;99.90;;;;;;5072527;28;20767;-66
2023/12/24 00:21:55;;;;;;;14.93;6.17;;;9.10;99.90;;;;;;5048742;28;20189;-66
2023/12/24 00:24:21;;;;;;;11.50;5.45;;;9.00;99.90;;;;;;5054756;28;20196;-66
2023/12/24 00:26:46;;;;;;;11.10;5.82;;;9.00;99.90;;;;;;5072765;28;20184;-65
2023/12/24 00:29:12;;;;;;;6.70;5.80;;;8.90;99.90;;;;;;5072696;28;20257;-66
2023/12/24 00:31:38;;;;;;;11.07;5.47;;;8.90;99.90;;;;;;5071522;28;20542;-65
2023/12/24 00:34:04;;;;;;;7.22;5.13;;;8.90;99.90;;;;;;5054471;28;20191;-65
2023/12/24 00:36:30;;;;;;;9.97;5.60;;;8.90;99.90;;;;;;5054786;28;20624;-65
2023/12/24 00:38:55;;;;;;;9.53;6.20;;;8.90;99.90;;;;;;5073129;28;20185;-65
2023/12/24 00:41:21;;;;;;;11.57;5.47;;;8.80;99.90;;;;;;5072708;28;20222;-65
2023/12/24 00:43:47;;;;;;;11.55;6.05;;;8.90;99.90;;;;;;5072017;28;20651;-66
2023/12/24 00:46:16;;;;;;;6.68;5.57;;;8.80;99.90;;;;;;5071920;28;20186;-66
2023/12/24 00:48:42;;;;;;;14.48;5.80;;;8.80;99.90;;;;;;5072208;28;20649;-66
2023/12/24 00:51:08;;;;;;;6.33;5.73;;;8.80;99.90;;;;;;5072657;28;20259;-65
2023/12/24 00:53:34;;;;;;;15.97;6.37;;;8.80;99.90;;;;;;5071959;28;20685;-66
2023/12/24 00:56:00;;;;;;;7.15;5.15;;;8.90;99.90;;;;;;5047047;28;20182;-65
2023/12/24 00:58:27;;;;;;;7.40;5.70;;;8.90;99.90;;;;;;5071186;28;20193;-64
2023/12/24 01:00:52;;;;;;;7.20;5.82;;;9.00;99.90;;;;;;5074067;28;20228;-65
2023/12/24 01:03:18;;;;;;;9.13;5.43;;;9.00;99.90;;;;;;5075342;28;20177;-65
2023/12/24 01:05:44;;;;;;;7.95;5.45;;;9.00;99.90;;;;;;5075692;28;20193;-65
2023/12/24 01:08:10;;;;;;;6.43;5.53;;;9.00;99.90;;;;;;5076385;28;20291;-66
2023/12/24 01:10:36;;;;;;;11.63;5.35;;;9.10;99.90;;;;;;5058145;28;20292;-66
2023/12/24 01:13:02;;;;;;;6.78;5.47;;;9.10;99.90;;;;;;5056048;28;20538;-67
2023/12/24 01:15:27;;;;;;;9.95;5.70;;;9.10;99.90;;;;;;5071707;28;20187;-66
2023/12/24 01:17:53;;;;;;;9.98;5.40;;;9.10;99.90;;;;;;5076737;28;20186;-65
2023/12/24 01:20:19;;;;;;;8.50;5.10;;;9.10;99.90;;;;;;5076180;28;20217;-64
2023/12/24 01:22:46;;;;;;;9.00;5.47;;;9.10;99.90;;;;;;5075968;28;20198;-65
2023/12/24 01:25:12;;;;;;;7.30;5.22;;;9.10;99.90;;;;;;5075858;28;20196;-66
2023/12/24 01:27:37;;;;;;;8.05;5.10;;;9.10;99.90;;;;;;5075678;28;20678;-64
2023/12/24 01:30:04;;;;;;;10.95;5.50;;;9.10;99.90;;;;;;5074687;28;20198;-65
2023/12/24 01:32:31;;;;;;;8.90;5.10;;;9.10;99.90;;;;;;5074571;28;20273;-66
2023/12/24 01:34:58;;;;;;;7.07;5.47;;;9.10;99.90;;;;;;5073940;28;20269;-65
2023/12/24 01:37:23;;;;;;;6.20;5.47;;;9.10;99.90;;;;;;5057545;28;20186;-65
2023/12/24 01:39:49;;;;;;;9.50;5.40;;;9.10;99.90;;;;;;5075517;28;20206;-65
2023/12/24 01:42:15;;;;;;;8.93;5.22;;;9.00;99.90;;;;;;5075342;28;20178;-65
2023/12/24 01:44:41;;;;;;;11.85;5.78;;;9.00;99.90;;;;;;5073711;28;20316;-65
2023/12/24 01:47:07;;;;;;;10.30;6.28;;;9.00;99.90;;;;;;5074435;28;20186;-65
2023/12/24 01:49:34;;;;;;;5.50;5.00;;;8.90;99.90;;;;;;5074294;28;20261;-66
2023/12/24 01:52:00;;;;;;;8.45;5.03;;;8.90;99.90;;;;;;5075149;28;20186;-66
2023/12/24 01:54:28;;;;;;;7.80;5.45;;;8.80;99.90;;;;;;5074150;28;20554;-64
2023/12/24 01:56:54;;;;;;;12.32;6.15;;;8.80;99.90;;;;;;5074825;28;20190;-66
2023/12/24 01:59:20;;;;;;;10.23;4.82;;;8.80;99.90;;;;;;5073594;28;20364;-66
2023/12/24 02:01:47;;;;;;;9.35;5.47;;;8.80;99.90;;;;;;5074268;28;20738;-66
2023/12/24 02:04:14;;;;;;;9.67;5.37;;;8.70;99.90;;;;;;5074795;28;20174;-65
2023/12/24 02:06:40;;;;;;;5.65;5.15;;;8.70;99.90;;;;;;5074509;28;20225;-66
2023/12/24 02:09:06;;;;;;;5.97;4.95;;;8.60;99.90;;;;;;5075053;28;20634;-66
2023/12/24 02:11:31;;;;;;;7.27;5.20;;;8.60;99.90;;;;;;5074970;28;20202;-65
2023/12/24 02:13:57;;;;;;;7.60;5.35;;;8.60;99.90;;;;;;5055048;28;20189;-65
2023/12/24 02:16:28;;;;;;;5.68;5.07;;;8.60;99.90;;;;;;5073927;28;20189;-66
2023/12/24 02:18:54;;;;;;;5.60;5.10;;;8.60;99.90;;;;;;5077596;28;20170;-66
2023/12/24 02:21:20;;;;;;;5.17;4.77;;;8.60;99.90;;;;;;5060427;28;20252;-66
2023/12/24 02:23:45;;;;;;;5.83;5.20;;;8.60;99.90;;;;;;5047867;28;20593;-66
2023/12/24 02:26:39;;;;;;;6.87;5.10;;;8.60;99.90;;;;;;5073962;28;20190;-65
2023/12/24 02:29:16;;;;;;;8.95;5.97;;;8.70;99.90;;;;;;5069732;28;20239;-66
2023/12/24 02:31:45;;;;;;;8.85;5.43;;;8.80;99.90;;;;;;5045795;28;20565;-65
2023/12/24 02:34:16;;;;;;;9.50;5.68;;;8.80;99.90;;;;;;5065291;28;20673;-66
2023/12/24 02:36:46;;;;;;;5.30;4.80;;;8.90;99.90;;;;;;5043346;28;20182;-65
2023/12/24 02:39:12;;;;;;;7.15;5.20;;;8.90;99.90;;;;;;5044564;28;20205;-65
2023/12/24 02:41:38;;;;;;;5.40;4.60;;;8.90;99.90;;;;;;5072942;28;20268;-65
2023/12/24 02:44:04;;;;;;;12.20;5.10;;;8.90;99.90;;;;;;5072530;28;20263;-64
2023/12/24 02:46:29;;;;;;;8.40;5.10;;;8.90;99.90;;;;;;5067204;28;20658;-65
2023/12/24 02:48:55;;;;;;;7.82;4.97;;;9.00;99.90;;;;;;5071005;28;20185;-65
2023/12/24 02:51:21;;;;;;;7.32;4.55;;;9.00;99.90;;;;;;5074078;28;20734;-66
2023/12/24 02:53:47;;;;;;;5.45;4.40;;;9.00;99.90;;;;;;5054760;28;20185;-65
2023/12/24 02:56:13;;;;;;;6.20;4.33;;;9.00;99.90;;;;;;5067242;28;20183;-66
2023/12/24 02:58:39;;;;;;;10.93;4.65;;;9.00;99.90;;;;;;5062013;28;20182;-66
2023/12/24 03:01:05;;;;;;;7.43;4.30;;;9.00;99.90;;;;;;5070946;28;20240;-66
2023/12/24 03:03:30;;;;;;;6.95;4.88;;;9.00;99.90;;;;;;5065805;28;20190;-65
2023/12/24 03:05:56;;;;;;;7.70;4.25;;;9.00;99.90;;;;;;5063525;28;20197;-65
2023/12/24 03:08:22;;;;;;;4.70;4.40;;;9.00;99.90;;;;;;5073395;28;20185;-66
2023/12/24 03:10:48;;;;;;;4.85;4.35;;;9.00;99.90;;;;;;5072646;28;20284;-66
2023/12/24 03:13:13;;;;;;;5.72;4.07;;;9.00;99.90;;;;;;5072788;28;20190;-66
2023/12/24 03:15:39;;;;;;;5.63;4.50;;;9.00;99.90;;;;;;5072968;28;20605;-65
2023/12/24 03:18:05;;;;;;;7.72;4.40;;;8.90;99.90;;;;;;5073591;28;20169;-65
2023/12/24 03:20:31;;;;;;;6.30;4.22;;;9.00;99.90;;;;;;5072512;28;20250;-66
2023/12/24 03:22:57;;;;;;;5.90;4.38;;;8.90;99.90;;;;;;5072349;28;20662;-65
2023/12/24 03:25:22;;;;;;;6.73;4.50;;;8.90;99.90;;;;;;5073750;28;20269;-65
2023/12/24 03:27:48;;;;;;;7.10;4.10;;;8.80;99.90;;;;;;5072125;28;20194;-65
2023/12/24 03:30:14;;;;;;;5.45;4.22;;;8.80;99.90;;;;;;5072049;28;20214;-66
2023/12/24 03:32:40;;;;;;;4.90;4.40;;;8.80;99.90;;;;;;5073184;28;20176;-64
2023/12/24 03:35:06;;;;;;;4.20;4.00;;;8.70;99.90;;;;;;5073038;28;20186;-65
2023/12/24 03:37:32;;;;;;;4.10;3.80;;;8.60;99.90;;;;;;5073303;28;20633;-65
2023/12/24 03:39:58;;;;;;;6.07;4.00;;;8.60;99.90;;;;;;5073119;28;20287;-66
2023/12/24 03:42:24;;;;;;;6.50;3.87;;;8.50;99.90;;;;;;5049181;28;20209;-66
2023/12/24 03:44:49;;;;;;;4.23;3.83;;;8.50;99.90;;;;;;5073317;28;20208;-65
2023/12/24 03:47:15;;;;;;;4.20;3.85;;;8.50;99.90;;;;;;5072818;28;20265;-66
2023/12/24 03:49:41;;;;;;;4.72;3.85;;;8.50;99.90;;;;;;5072945;28;20209;-66
2023/12/24 03:52:06;;;;;;;4.88;3.67;;;8.40;99.90;;;;;;5072604;28;20182;-65
2023/12/24 03:54:32;;;;;;;3.90;3.60;;;8.40;99.90;;;;;;5072498;28;20250;-65
2023/12/24 03:56:58;;;;;;;3.80;3.50;;;8.40;99.90;;;;;;5072396;28;20190;-65
2023/12/24 03:59:24;;;;;;;3.83;3.63;;;8.40;99.90;;;;;;5054955;28;20237;-64
2023/12/24 04:01:50;;;;;;;3.70;3.50;;;8.40;99.90;;;;;;5070636;28;20610;-65
2023/12/24 04:04:16;;;;;;;3.80;3.50;;;8.40;99.90;;;;;;5072624;28;20182;-66
2023/12/24 04:06:41;;;;;;;3.50;3.30;;;8.30;99.90;;;;;;5073798;28;20193;-65
2023/12/24 04:09:09;;;;;;;3.40;3.30;;;8.30;99.90;;;;;;5073629;28;20174;-65
2023/12/24 04:11:34;;;;;;;3.60;3.30;;;8.40;99.90;;;;;;5065737;28;20216;-65
2023/12/24 04:14:00;;;;;;;3.40;3.30;;;8.40;99.90;;;;;;5049681;28;20186;-64
2023/12/24 04:16:26;;;;;;;3.10;3.00;;;8.40;99.90;;;;;;5073141;28;20184;-65
2023/12/24 04:18:52;;;;;;;3.33;3.20;;;8.40;99.90;;;;;;5072583;28;20690;-65
2023/12/24 04:21:17;;;;;;;3.40;3.22;;;8.50;99.90;;;;;;5073009;28;20205;-65
2023/12/24 04:23:43;;;;;;;3.30;3.10;;;8.50;99.90;;;;;;5072975;28;20197;-65
2023/12/24 04:26:09;;;;;;;3.08;2.97;;;8.50;99.90;;;;;;5072889;28;20210;-65
2023/12/24 04:28:35;;;;;;;3.20;3.10;;;8.60;99.90;;;;;;5071710;28;20265;-65
2023/12/24 04:31:00;;;;;;;3.40;3.20;;;8.60;99.90;;;;;;5052681;28;20641;-66
2023/12/24 04:33:27;;;;;;;3.27;3.17;;;8.50;99.90;;;;;;5052686;28;20256;-66
2023/12/24 04:35:52;;;;;;;3.30;3.20;;;8.50;99.90;;;;;;5055887;28;20179;-65
2023/12/24 04:38:18;;;;;;;3.40;3.20;;;8.60;99.90;;;;;;5069172;28;20182;-66
2023/12/24 04:40:44;;;;;;;3.50;3.30;;;8.60;99.90;;;;;;5076401;28;20213;-66
2023/12/24 04:43:10;;;;;;;3.30;3.20;;;8.60;99.90;;;;;;5058407;28;20192;-66
2023/12/24 04:45:35;;;;;;;3.20;3.10;;;8.60;99.90;;;;;;5076392;28;20174;-66
2023/12/24 04:48:03;;;;;;;3.30;3.20;;;8.60;99.90;;;;;;5076708;28;20173;-65
2023/12/24 04:50:29;;;;;;;3.40;3.30;;;8.60;99.90;;;;;;5076042;28;20197;-65
2023/12/24 04:52:55;;;;;;;3.50;3.33;;;8.60;99.90;;;;;;5076253;28;20607;-65
2023/12/24 04:55:20;;;;;;;4.15;3.72;;;8.60;99.90;;;;;;5076725;28;20178;-64
2023/12/24 04:57:46;;;;;;;3.50;3.30;;;8.60;99.90;;;;;;5076580;28;20296;-66
2023/12/24 05:00:13;;;;;;;3.47;3.30;;;8.60;99.90;;;;;;5075615;28;20558;-65
2023/12/24 05:02:38;;;;;;;3.67;3.30;;;8.70;99.90;;;;;;5044262;28;20236;-65
2023/12/24 05:05:05;;;;;;;3.70;3.50;;;8.60;99.90;;;;;;5076008;28;20173;-65
2023/12/24 05:07:31;;;;;;;3.60;3.40;;;8.70;99.90;;;;;;5075445;28;20259;-65
2023/12/24 05:09:56;;;;;;;3.63;3.30;;;8.70;99.90;;;;;;5075707;28;20202;-65
2023/12/24 05:12:22;;;;;;;3.78;3.47;;;8.70;99.90;;;;;;5075158;28;20713;-65
2023/12/24 05:14:49;;;;;;;3.53;3.30;;;8.60;99.90;;;;;;5076002;28;20564;-66
2023/12/24 05:17:15;;;;;;;3.70;3.50;;;8.60;99.90;;;;;;5075343;28;20255;-64
2023/12/24 05:19:41;;;;;;;3.70;3.50;;;8.70;99.90;;;;;;5075565;28;20729;-66
2023/12/24 05:22:06;;;;;;;6.05;3.90;;;8.60;99.90;;;;;;5057893;28;20229;-65
2023/12/24 05:24:32;;;;;;;3.65;3.45;;;8.70;99.90;;;;;;5075697;28;20633;-65
2023/12/24 05:26:58;;;;;;;3.70;3.50;;;8.60;99.90;;;;;;5075324;28;20182;-66
2023/12/24 05:29:24;;;;;;;3.70;3.50;;;8.60;99.90;;;;;;5075643;28;20640;-66
2023/12/24 05:31:50;;;;;;;3.40;3.20;;;8.60;99.90;;;;;;5075185;28;20592;-66
2023/12/24 05:34:16;;;;;;;3.92;3.63;;;8.60;99.90;;;;;;5075189;28;20261;-66
2023/12/24 05:36:42;;;;;;;3.53;3.33;;;8.60;99.90;;;;;;5057516;28;20209;-65
2023/12/24 05:39:11;;;;;;;3.78;3.50;;;8.60;99.90;;;;;;5056681;28;20198;-65
2023/12/24 05:41:37;;;;;;;3.70;3.50;;;8.60;99.90;;;;;;5074759;28;20624;-66
2023/12/24 05:44:02;;;;;;;3.63;3.42;;;8.70;99.90;;;;;;5056021;28;20564;-65
2023/12/24 05:46:28;;;;;;;3.90;3.70;;;8.60;99.90;;;;;;5074440;28;20212;-66
2023/12/24 05:48:54;;;;;;;3.60;3.40;;;8.60;99.90;;;;;;5040660;28;20539;-66
2023/12/24 05:51:20;;;;;;;3.55;3.35;;;8.60;99.90;;;;;;5038352;28;20221;-65
2023/12/24 05:53:46;;;;;;;3.80;3.60;;;8.60;99.90;;;;;;5055268;28;20179;-65
2023/12/24 05:56:11;;;;;;;3.73;3.53;;;8.60;99.90;;;;;;5074704;28;20216;-66
2023/12/24 05:58:38;;;;;;;3.63;3.40;;;8.60;99.90;;;;;;5075614;28;20212;-65
2023/12/24 06:01:04;;;;;;;3.50;3.30;;;8.70;99.90;;;;;;5073718;28;20304;-66
2023/12/24 06:03:30;;;;;;;3.50;3.30;;;8.70;99.90;;;;;;5051903;28;20273;-66
2023/12/24 06:05:56;;;;;;;3.50;3.30;;;8.60;99.90;;;;;;5074556;28;20185;-65
2023/12/24 06:08:23;;;;;;;3.58;3.33;;;8.60;99.90;;;;;;5083127;28;20220;-64
2023/12/24 06:10:49;;;;;;;3.40;3.20;;;8.60;99.90;;;;;;5088964;28;20288;-65
2023/12/24 06:13:14;;;;;;;4.30;3.40;;;8.60;99.90;;;;;;5053442;28;20222;-66
2023/12/24 06:15:40;;;;;;;3.50;3.40;;;8.60;99.90;;;;;;5074069;28;20190;-65
2023/12/24 06:18:06;;;;;;;3.40;3.30;;;8.60;99.90;;;;;;5061933;28;20707;-66
2023/12/24 06:20:32;;;;;;;3.70;3.40;;;8.60;99.90;;;;;;5054190;28;20293;-65
2023/12/24 06:23:02;;;;;;;3.70;3.50;;;8.60;99.90;;;;;;5036929;28;20228;-66
2023/12/24 06:25:28;;;;;;;3.63;3.43;;;8.70;99.90;;;;;;5073941;28;20261;-65
2023/12/24 06:27:54;;;;;;;3.50;3.30;;;8.60;99.90;;;;;;5069181;28;20214;-65
2023/12/24 06:30:20;;;;;;;3.50;3.40;;;8.70;99.90;;;;;;5068387;28;20209;-66
2023/12/24 06:32:47;;;;;;;3.22;3.13;;;8.70;99.90;;;;;;5073479;28;20182;-65
2023/12/24 06:35:13;;;;;;;3.80;3.60;;;8.70;99.90;;;;;;5061894;28;20650;-66
2023/12/24 06:37:39;;;;;;;3.90;3.60;;;8.70;99.90;;;;;;5044504;28;20178;-65
2023/12/24 06:40:06;;;;;;;3.50;3.30;;;8.70;99.90;;;;;;5048321;28;20213;-66
2023/12/24 06:42:32;;;;;;;3.40;3.20;;;8.70;99.90;;;;;;5060792;28;20190;-65
2023/12/24 06:44:57;;;;;;;3.43;3.23;;;8.70;99.90;;;;;;5068575;28;20186;-66
2023/12/24 06:47:23;;;;;;;3.30;3.20;;;8.80;99.90;;;;;;5055163;28;20667;-65
2023/12/24 06:49:49;;;;;;;3.30;3.20;;;8.80;99.90;;;;;;5062173;28;20213;-65
2023/12/24 06:52:15;;;;;;;3.30;3.20;;;8.80;99.90;;;;;;5066821;28;20186;-65
2023/12/24 06:54:41;;;;;;;3.93;3.30;;;8.80;99.90;;;;;;5072971;28;20185;-64
2023/12/24 06:57:08;;;;;;;3.50;3.30;;;8.80;99.90;;;;;;5073655;28;20725;-65
2023/12/24 06:59:34;;;;;;;3.27;3.10;;;8.80;99.90;;;;;;5055669;28;20216;-65
2023/12/24 07:02:00;;;;;;;3.40;3.30;;;8.80;99.90;;;;;;5053262;28;20189;-63
2023/12/24 07:04:26;;;;;;;3.60;3.40;;;8.80;99.90;;;;;;5073373;28;20180;-65
2023/12/24 07:06:52;;;;;;;3.40;3.20;;;8.80;99.90;;;;;;5072893;28;20566;-66
2023/12/24 07:09:18;;;;;;;3.43;3.27;;;8.80;99.90;;;;;;5073000;28;20741;-66
2023/12/24 07:11:44;;;;;;;3.60;3.40;;;8.80;99.90;;;;;;5073492;28;20186;-66
2023/12/24 07:14:10;;;;;;;3.50;3.30;;;8.80;99.90;;;;;;5073166;28;20192;-65
2023/12/24 07:16:36;;;;;;;4.28;3.60;;;8.80;99.90;;;;;;5051300;28;20182;-66
2023/12/24 07:19:05;;;;;;;3.40;3.20;;;8.80;99.90;;;;;;5072907;28;20693;-65
2023/12/24 07:21:31;;;;;;;3.67;3.45;;;8.90;99.90;;;;;;5073173;28;20174;-65
2023/12/24 07:23:57;;;;;;;3.70;3.50;;;8.90;99.90;;;;;;5073350;28;20315;-64
2023/12/24 07:26:22;;;;;;;3.50;3.40;;;8.90;99.90;;;;;;5073271;28;20185;-65
2023/12/24 07:28:48;;;;;;;3.60;3.40;;;8.90;99.90;;;;;;5073624;28;20241;-64
2023/12/24 07:31:14;;;;;;;3.70;3.35;;;8.90;99.90;;;;;;5072533;28;20205;-65
2023/12/24 07:33:40;;;;;;;3.80;3.50;;;8.90;99.90;;;;;;5072315;28;20192;-66
2023/12/24 07:36:06;;;;;;;3.60;3.40;;;8.90;99.90;;;;;;5073054;28;20170;-66
2023/12/24 07:38:32;;;;;;;3.33;3.23;;;8.90;99.90;;;;;;5073012;28;20182;-65
2023/12/24 07:40:58;;;;;;;4.23;3.87;;;8.90;99.90;;;;;;5055117;28;20212;-67
2023/12/24 07:43:24;;;;;;;3.75;3.50;;;8.90;99.90;;;;;;5072573;28;20546;-67
2023/12/24 07:45:52;;;;;;;4.30;3.50;;;9.00;99.90;;;;;;5062314;28;20166;-66
2023/12/24 07:48:19;;;;;;;3.90;3.60;;;9.00;99.90;;;;;;5054410;28;20185;-66
2023/12/24 07:50:45;;;;;;;3.70;3.50;;;9.00;99.90;;;;;;5051872;28;20209;-66
2023/12/24 07:53:11;;;;;;;3.60;3.40;;;9.00;99.90;;;;;;5072487;28;20200;-66
2023/12/24 07:55:37;;;;;;;3.50;3.30;;;9.00;99.90;;;;;;5072528;28;20186;-65
2023/12/24 07:58:02;;;;;;;3.90;3.60;;;9.10;99.90;;;;;;5073042;28;20182;-66
2023/12/24 08:00:29;;;;;;;3.90;3.60;;;9.00;99.90;;;;;;5072035;28;20255;-65
2023/12/24 08:02:55;;;;;;;3.45;3.33;;;9.10;99.90;;;;;;5072968;28;20311;-67
2023/12/24 08:05:20;;;;;;;4.10;3.80;;;9.10;99.90;;;;;;5051961;28;20634;-64
2023/12/24 08:07:46;;;;;;;4.63;3.60;;;9.00;99.90;;;;;;5071857;28;20185;-67
2023/12/24 08:10:12;;;;;;;4.80;3.45;;;9.10;99.90;;;;;;5051559;28;20241;-65
2023/12/24 08:12:38;;;;;;;3.75;3.42;;;9.00;99.90;;;;;;5076831;28;20178;-66
2023/12/24 08:15:05;;;;;;;3.45;3.28;;;9.10;99.90;;;;;;5058366;28;20189;-66
2023/12/24 08:17:31;;;;;;;3.50;3.30;;;9.10;99.90;;;;;;5056582;28;20190;-65
2023/12/24 08:19:57;;;;;;;3.60;3.30;;;9.10;99.90;;;;;;5076697;28;20282;-64
2023/12/24 08:22:22;;;;;;;3.65;3.45;;;9.10;99.90;;;;;;5076076;28;20212;-65
2023/12/24 08:24:49;;;;;;;3.30;3.20;;;9.10;99.90;;;;;;5076125;28;20189;-65
2023/12/24 08:27:15;;;;;;;3.75;3.55;;;9.10;99.90;;;;;;5057159;28;20279;-67
2023/12/24 08:29:40;;;;;;;3.60;3.40;;;9.10;99.90;;;;;;5052660;28;20690;-66
2023/12/24 08:32:06;;;;;;;3.58;3.25;;;9.10;99.90;;;;;;5076599;28;20178;-65
2023/12/24 08:34:35;;;;;;;3.80;3.60;;;9.10;99.90;;;;;;5058320;28;20186;-65
2023/12/24 08:37:00;;;;;;;4.05;3.75;;;9.10;99.90;;;;;;5076521;28;20189;-67
2023/12/24 08:39:26;;;;;;;3.70;3.50;;;9.10;99.90;;;;;;5076298;28;20255;-64
2023/12/24 08:41:52;;;;;;;3.58;3.40;;;9.10;99.90;;;;;;5058536;28;20550;-66
2023/12/24 08:44:18;;;;;;;3.70;3.50;;;9.10;99.90;;;;;;5057465;28;20662;-66
2023/12/24 08:46:47;;;;;;;3.90;3.60;;;9.20;99.90;;;;;;5074949;28;20178;-65
2023/12/24 08:49:14;;;;;;;3.97;3.65;;;9.20;99.90;;;;;;5074584;28;20182;-67
2023/12/24 08:51:40;;;;;;;4.00;3.80;;;9.20;99.90;;;;;;5075837;28;20645;-66
2023/12/24 08:54:06;;;;;;;3.95;3.65;;;9.20;99.90;;;;;;5076518;28;20204;-66
2023/12/24 08:56:35;;;;;;;3.93;3.50;;;9.20;99.90;;;;;;5067799;28;20180;-66
2023/12/24 08:59:03;;;;;;;3.67;3.47;;;9.20;99.90;;;;;;5060565;28;20177;-64
2023/12/24 09:01:29;;;;;;;3.53;3.33;;;9.20;99.90;;;;;;5089874;28;20193;-67
2023/12/24 09:03:55;;;;;;;3.55;3.35;;;9.20;99.90;;;;;;5061359;28;20261;-66
2023/12/24 09:06:21;;;;;;;3.80;3.50;;;9.20;99.90;;;;;;5095915;28;20197;-67
2023/12/24 09:08:47;;;;;;;3.67;3.47;;;9.20;99.90;;;;;;5096735;28;20242;-65
2023/12/24 09:11:12;;;;;;;3.60;3.40;;;9.30;99.90;;;;;;5096365;28;20227;-66
2023/12/24 09:13:38;;;;;;;3.85;3.55;;;9.30;99.90;;;;;;5076494;28;20552;-66
2023/12/24 09:16:05;;;;;;;3.67;3.42;;;9.30;99.90;;;;;;5057947;28;20211;-67
2023/12/24 09:18:30;;;;;;;4.07;3.77;;;9.30;99.90;;;;;;5075776;28;20707;-65
2023/12/24 09:20:56;;;;;;;3.80;3.60;;;9.30;99.90;;;;;;5073954;28;20209;-65
2023/12/24 09:23:22;;;;;;;4.18;3.88;;;9.30;99.90;;;;;;5075676;28;20244;-67
2023/12/24 09:25:48;;;;;;;4.00;3.80;;;9.30;99.90;;;;;;5075773;28;20178;-67
2023/12/24 09:28:14;;;;;;;3.88;3.58;;;9.30;99.90;;;;;;5075566;28;20613;-66
2023/12/24 09:30:40;;;;;;;4.00;3.70;;;9.30;99.90;;;;;;5075544;28;20197;-67
2023/12/24 09:33:06;;;;;;;3.95;3.70;;;9.30;99.90;;;;;;5076190;28;20169;-67
2023/12/24 09:35:32;;;;;;;5.22;3.90;;;9.30;99.90;;;;;;5075740;28;20272;-67
2023/12/24 09:37:57;;;;;;;4.35;4.05;;;9.30;99.90;;;;;;5057606;28;20721;-67
2023/12/24 09:40:23;;;;;;;4.43;4.03;;;9.30;99.90;;;;;;5076073;28;20213;-65
2023/12/24 09:42:50;;;;;;;3.70;3.50;;;9.40;99.90;;;;;;5075741;28;20188;-65
2023/12/24 09:45:15;;;;;;;4.38;4.07;;;9.40;99.90;;;;;;5075242;28;20178;-66
2023/12/24 09:47:41;;;;;;;4.30;4.03;;;9.40;99.90;;;;;;5075758;28;20182;-65
2023/12/24 09:50:07;;;;;;;3.95;3.75;;;9.40;99.90;;;;;;5075393;28;20210;-66
2023/12/24 09:52:36;;;;;;;3.90;3.60;;;9.50;99.90;;;;;;5075218;28;20647;-67
2023/12/24 09:55:03;;;;;;;4.25;3.95;;;9.50;99.90;;;;;;5075662;28;20186;-65
2023/12/24 09:57:29;;;;;;;4.78;3.92;;;9.50;99.90;;;;;;5076213;28;20193;-66
2023/12/24 09:59:55;;;;;;;3.70;3.50;;;9.50;99.90;;;;;;5076309;28;20206;-66
2023/12/24 10:02:21;;;;;;;3.75;3.55;;;9.50;99.90;;;;;;5076361;28;20189;-65
2023/12/24 10:04:47;;;;;;;3.60;3.40;;;9.50;99.90;;;;;;5075214;28;20182;-65
2023/12/24 10:07:12;;;;;;;3.70;3.50;;;9.50;99.90;;;;;;5074961;28;20186;-66
2023/12/24 10:09:49;;;;;;;3.40;3.22;;;9.50;99.90;;;;;;5074044;28;20198;-66
2023/12/24 10:12:15;;;;;;;3.70;3.43;;;9.60;99.90;;;;;;5056904;28;20186;-66
2023/12/24 10:14:55;;;;;;;3.40;3.20;;;9.60;99.90;;;;;;5074832;28;20640;-66
2023/12/24 10:17:32;;;;;;;3.20;3.05;;;9.60;99.90;;;;;;5074830;28;20201;-65
2023/12/24 10:19:59;;;;;;;3.63;3.40;;;9.60;99.90;;;;;;5074555;28;20267;-67
2023/12/24 10:22:25;;;;;;;3.55;3.35;;;9.60;99.90;;;;;;5074860;28;20545;-65
2023/12/24 10:25:08;;;;;;;3.30;3.10;;;9.60;99.90;;;;;;5074597;28;20182;-67
2023/12/24 10:27:34;;;;;;;3.30;3.10;;;9.60;99.90;;;;;;5074416;28;20245;-67
2023/12/24 10:30:12;;;;;;;3.83;3.50;;;9.60;99.90;;;;;;5056416;28;20276;-67
2023/12/24 10:32:46;;;;;;;3.70;3.50;;;9.60;99.90;;;;;;5073733;28;20253;-66
2023/12/24 10:35:21;;;;;;;3.83;3.53;;;9.60;99.90;;;;;;5074404;28;20240;-67
2023/12/24 10:37:48;;;;;;;3.50;3.30;;;9.60;99.90;;;;;;5056562;28;20185;-67
2023/12/24 10:40:14;;;;;;;3.80;3.60;;;9.60;99.90;;;;;;5056207;28;20300;-66
2023/12/24 10:42:40;;;;;;;3.65;3.45;;;9.60;99.90;;;;;;5074166;28;20174;-66
2023/12/24 10:45:07;;;;;;;3.92;3.72;;;9.60;99.90;;;;;;5053265;28;20182;-67
2023/12/24 10:47:34;;;;;;;3.75;3.50;;;9.60;99.90;;;;;;5073955;28;20213;-66
2023/12/24 10:50:00;;;;;;;3.95;3.65;;;9.60;99.90;;;;;;5073314;28;20205;-67
2023/12/24 10:52:26;;;;;;;3.80;3.60;;;9.60;99.90;;;;;;5072068;28;20181;-65
2023/12/24 10:54:53;;;;;;;3.63;3.42;;;9.70;99.90;;;;;;5073308;28;20265;-66
2023/12/24 10:57:34;;;;;;;3.63;3.42;;;9.70;99.90;;;;;;5074454;28;20168;-66
2023/12/24 11:00:09;;;;;;;4.10;3.80;;;9.70;99.90;;;;;;5073619;28;20205;-66
2023/12/24 11:02:37;;;;;;;4.43;4.03;;;9.70;99.90;;;;;;5074063;28;20154;-67
2023/12/24 11:05:03;;;;;;;4.50;4.20;;;9.70;99.90;;;;;;5055682;28;20182;-67
2023/12/24 11:07:35;;;;;;;4.25;3.92;;;9.70;99.90;;;;;;5073697;28;20185;-67
2023/12/24 11:10:02;;;;;;;4.50;4.10;;;9.70;99.90;;;;;;5073640;28;20205;-67
2023/12/24 11:12:36;;;;;;;4.80;4.30;;;9.70;99.90;;;;;;5074054;28;20227;-65
2023/12/24 11:15:03;;;;;;;3.65;3.45;;;9.70;99.90;;;;;;5055701;28;20610;-65
2023/12/24 11:17:36;;;;;;;8.00;5.38;;;9.70;99.90;;;;;;5074025;28;20195;-67
2023/12/24 11:20:26;;;;;;;8.30;6.10;;;9.80;99.90;;;;;;5073305;28;20216;-66
2023/12/24 11:23:18;;;;;;;10.32;5.53;;;9.80;99.90;;;;;;5073559;28;20260;-66
2023/12/24 11:25:51;;;;;;;5.40;4.15;;;9.80;99.90;;;;;;5069810;28;20182;-67
2023/12/24 11:28:23;;;;;;;28.10;11.35;;;9.90;99.90;;;;;;5073572;28;20158;-65
2023/12/24 11:30:52;;;;;;;9.88;5.45;;;9.90;99.90;;;;;;5055483;28;20217;-66
2023/12/24 11:33:29;;;;;;;13.38;5.97;;;9.90;99.90;;;;;;5073515;28;20178;-65
2023/12/24 11:36:00;;;;;;;17.38;7.80;;;9.90;99.90;;;;;;5073227;28;20249;-66
2023/12/24 11:38:34;;;;;;;5.65;4.80;;;10.00;99.90;;;;;;5073796;28;20527;-64
2023/12/24 11:41:10;;;;;;;4.10;3.80;;;10.00;99.90;;;;;;5073856;28;20254;-67
2023/12/24 11:43:43;;;;;;;4.22;3.92;;;10.00;99.90;;;;;;5055077;28;20186;-66
2023/12/24 11:46:10;;;;;;;3.75;3.45;;;10.00;99.90;;;;;;5073710;28;20182;-66
2023/12/24 11:48:36;;;;;;;3.90;3.60;;;10.00;99.90;;;;;;5072024;28;20188;-67
2023/12/24 11:51:04;;;;;;;4.23;3.93;;;10.00;99.90;;;;;;5054824;28;20210;-66
2023/12/24 11:53:35;;;;;;;4.40;4.00;;;10.00;99.90;;;;;;5055172;28;20267;-65
2023/12/24 11:56:15;;;;;;;4.32;3.65;;;10.00;99.90;;;;;;5055157;28;20181;-66
2023/12/24 11:58:48;;;;;;;3.88;3.58;;;10.10;99.90;;;;;;5073123;28;20177;-65
2023/12/24 12:01:14;;;;;;;4.15;3.85;;;10.10;99.90;;;;;;5073200;28;20570;-66
2023/12/24 12:03:40;;;;;;;5.25;3.70;;;10.00;99.90;;;;;;5073018;28;20182;-66
2023/12/24 12:06:06;;;;;;;6.07;4.10;;;10.10;99.90;;;;;;5072947;28;20190;-64
2023/12/24 12:08:32;;;;;;;3.95;3.65;;;10.10;99.90;;;;;;5054885;28;20208;-66
2023/12/24 12:10:58;;;;;;;3.90;3.60;;;10.10;99.90;;;;;;5054875;28;20201;-66
2023/12/24 12:13:24;;;;;;;5.10;3.50;;;10.10;99.90;;;;;;5072944;28;20182;-66
2023/12/24 12:15:50;;;;;;;4.18;3.88;;;10.10;99.90;;;;;;5072046;28;20554;-66
2023/12/24 12:18:17;;;;;;;3.75;3.55;;;10.10;99.90;;;;;;5055042;28;20212;-65
2023/12/24 12:20:45;;;;;;;3.80;3.50;;;10.10;99.90;;;;;;5072467;28;20202;-65
2023/12/24 12:23:16;;;;;;;3.85;3.53;;;10.10;99.90;;;;;;5073141;28;20174;-68
2023/12/24 12:25:45;;;;;;;3.70;3.40;;;10.10;99.90;;;;;;5073138;28;20162;-63
2023/12/24 12:28:11;;;;;;;3.80;3.50;;;10.20;99.90;;;;;;5054688;28;20186;-65
2023/12/24 12:30:37;;;;;;;4.03;3.60;;;10.20;99.90;;;;;;5072922;28;20213;-64
2023/12/24 12:33:03;;;;;;;4.07;3.63;;;10.20;99.90;;;;;;5054764;28;20268;-64
2023/12/24 12:35:30;;;;;;;4.13;3.72;;;10.30;99.90;;;;;;5072534;28;20177;-64
2023/12/24 12:37:56;;;;;;;3.40;3.20;;;10.30;99.90;;;;;;5072802;28;20273;-64
2023/12/24 12:40:22;;;;;;;3.97;3.67;;;10.30;99.90;;;;;;5072533;28;20292;-65
2023/12/24 12:42:48;;;;;;;3.90;3.70;;;10.30;99.90;;;;;;5054631;28;20217;-65
2023/12/24 12:45:14;;;;;;;4.30;3.97;;;10.20;99.90;;;;;;5054690;28;20193;-65
2023/12/24 12:47:41;;;;;;;6.20;4.50;;;10.20;99.90;;;;;;5054964;28;20170;-66
2023/12/24 12:50:07;;;;;;;4.85;4.32;;;10.20;99.90;;;;;;5073322;28;20674;-66
2023/12/24 12:52:34;;;;;;;5.20;4.70;;;10.20;99.90;;;;;;5073075;28;20178;-66